sensor_id;sensor_type;location;lat;lon;timestamp;temperature;humidity
24412;DHT22;12544;46.760;15.942;2023-10-19T00:02:08;8.00;99.90
24412;DHT22;12544;46.760;15.942;2023-10-19T00:04:36;8.00;99.90
24412;DHT22;12544;46.760;15.942;2023-10-19T00:07:02;7.90;99.90
24412;DHT22;12544;46.760;15.942;2023-10-19T00:09:30;7.80;99.90
24412;DHT22;12544;46.760;15.942;2023-10-19T00:12:02;7.80;99.90
24412;DHT22;12544;46.760;15.942;2023-10-19T00:14:28;7.70;99.90
24412;DHT22;12544;46.760;15.942;2023-10-19T00:16:54;7.70;99.90
24412;DHT22;12544;46.760;15.942;2023-10-19T00:19:26;7.60;99.90
24412;DHT22;12544;46.760;15.942;2023-10-19T00:21:54;7.70;99.90
24412;DHT22;12544;46.760;15.942;2023-10-19T00:24:33;7.70;99.90
24412;DHT22;12544;46.760;15.942;2023-10-19T00:26:58;7.70;99.90
24412;DHT22;12544;46.760;15.942;2023-10-19T00:29:31;7.70;99.90
24412;DHT22;12544;46.760;15.942;2023-10-19T00:31:58;7.70;99.90
24412;DHT22;12544;46.760;15.942;2023-10-19T00:34:25;7.70;99.90
24412;DHT22;12544;46.760;15.942;2023-10-19T00:36:51;7.70;99.90
24412;DHT22;12544;46.760;15.942;2023-10-19T00:39:17;7.80;99.90
24412;DHT22;12544;46.760;15.942;2023-10-19T00:41:50;7.90;99.90
24412;DHT22;12544;46.760;15.942;2023-10-19T00:44:16;7.90;99.90
24412;DHT22;12544;46.760;15.942;2023-10-19T00:46:50;7.90;99.90
24412;DHT22;12544;46.760;15.942;2023-10-19T00:49:30;7.90;99.90
24412;DHT22;12544;46.760;15.942;2023-10-19T00:51:57;7.90;99.90
24412;DHT22;12544;46.760;15.942;2023-10-19T00:54:38;7.90;99.90
24412;DHT22;12544;46.760;15.942;2023-10-19T00:57:17;7.90;99.90
24412;DHT22;12544;46.760;15.942;2023-10-19T00:59:48;7.90;99.90
24412;DHT22;12544;46.760;15.942;2023-10-19T01:02:19;7.90;99.90
24412;DHT22;12544;46.760;15.942;2023-10-19T01:04:53;8.00;99.90
24412;DHT22;12544;46.760;15.942;2023-10-19T01:07:27;8.00;99.90
24412;DHT22;12544;46.760;15.942;2023-10-19T01:10:00;8.10;99.90
24412;DHT22;12544;46.760;15.942;2023-10-19T01:12:29;8.10;99.90
24412;DHT22;12544;46.760;15.942;2023-10-19T01:17:40;8.20;99.90
24412;DHT22;12544;46.760;15.942;2023-10-19T01:20:12;8.10;99.90
24412;DHT22;12544;46.760;15.942;2023-10-19T01:25:42;8.00;99.90
24412;DHT22;12544;46.760;15.942;2023-10-19T01:28:36;8.00;99.90
24412;DHT22;12544;46.760;15.942;2023-10-19T01:31:10;8.00;99.90
24412;DHT22;12544;46.760;15.942;2023-10-19T01:33:41;8.10;99.90
24412;DHT22;12544;46.760;15.942;2023-10-19T01:36:08;8.00;99.90
24412;DHT22;12544;46.760;15.942;2023-10-19T01:38:38;7.90;99.90
24412;DHT22;12544;46.760;15.942;2023-10-19T01:41:05;7.80;99.90
24412;DHT22;12544;46.760;15.942;2023-10-19T01:43:39;7.70;99.90
24412;DHT22;12544;46.760;15.942;2023-10-19T01:46:06;7.70;99.90
24412;DHT22;12544;46.760;15.942;2023-10-19T01:48:41;7.60;99.90
24412;DHT22;12544;46.760;15.942;2023-10-19T01:51:08;7.50;99.90
24412;DHT22;12544;46.760;15.942;2023-10-19T01:53:39;7.60;99.90
24412;DHT22;12544;46.760;15.942;2023-10-19T01:56:06;7.50;99.90
24412;DHT22;12544;46.760;15.942;2023-10-19T01:58:35;7.50;99.90
24412;DHT22;12544;46.760;15.942;2023-10-19T02:01:03;7.40;99.90
24412;DHT22;12544;46.760;15.942;2023-10-19T02:03:34;7.30;99.90
24412;DHT22;12544;46.760;15.942;2023-10-19T02:06:01;7.20;99.90
24412;DHT22;12544;46.760;15.942;2023-10-19T02:11:15;7.10;99.90
24412;DHT22;12544;46.760;15.942;2023-10-19T02:13:45;7.10;99.90
24412;DHT22;12544;46.760;15.942;2023-10-19T02:16:16;7.10;99.90
24412;DHT22;12544;46.760;15.942;2023-10-19T02:18:43;7.00;99.90
24412;DHT22;12544;46.760;15.942;2023-10-19T02:21:09;6.90;99.90
24412;DHT22;12544;46.760;15.942;2023-10-19T02:23:38;6.90;99.90
24412;DHT22;12544;46.760;15.942;2023-10-19T02:26:04;6.80;99.90
24412;DHT22;12544;46.760;15.942;2023-10-19T02:28:31;6.80;99.90
24412;DHT22;12544;46.760;15.942;2023-10-19T02:31:04;6.80;99.90
24412;DHT22;12544;46.760;15.942;2023-10-19T02:33:42;6.70;99.90
24412;DHT22;12544;46.760;15.942;2023-10-19T02:36:12;6.80;99.90
24412;DHT22;12544;46.760;15.942;2023-10-19T02:38:42;6.90;99.90
24412;DHT22;12544;46.760;15.942;2023-10-19T02:41:16;6.90;99.90
24412;DHT22;12544;46.760;15.942;2023-10-19T02:43:43;7.00;99.90
24412;DHT22;12544;46.760;15.942;2023-10-19T02:46:13;7.20;99.90
24412;DHT22;12544;46.760;15.942;2023-10-19T02:48:39;7.30;99.90
24412;DHT22;12544;46.760;15.942;2023-10-19T02:51:15;7.30;99.90
24412;DHT22;12544;46.760;15.942;2023-10-19T02:53:41;7.30;99.90
24412;DHT22;12544;46.760;15.942;2023-10-19T02:56:12;7.40;99.90
24412;DHT22;12544;46.760;15.942;2023-10-19T02:58:42;7.50;99.90
24412;DHT22;12544;46.760;15.942;2023-10-19T03:01:18;7.50;99.90
24412;DHT22;12544;46.760;15.942;2023-10-19T03:03:48;7.60;99.90
24412;DHT22;12544;46.760;15.942;2023-10-19T03:06:18;7.60;99.90
24412;DHT22;12544;46.760;15.942;2023-10-19T03:08:45;7.60;99.90
24412;DHT22;12544;46.760;15.942;2023-10-19T03:11:12;7.40;99.90
24412;DHT22;12544;46.760;15.942;2023-10-19T03:13:39;7.30;99.90
24412;DHT22;12544;46.760;15.942;2023-10-19T03:16:07;7.30;99.90
24412;DHT22;12544;46.760;15.942;2023-10-19T03:18:35;7.20;99.90
24412;DHT22;12544;46.760;15.942;2023-10-19T03:21:02;7.10;99.90
24412;DHT22;12544;46.760;15.942;2023-10-19T03:23:27;7.10;99.90
24412;DHT22;12544;46.760;15.942;2023-10-19T03:25:55;7.00;99.90
24412;DHT22;12544;46.760;15.942;2023-10-19T03:28:27;6.90;99.90
24412;DHT22;12544;46.760;15.942;2023-10-19T03:30:54;6.80;99.90
24412;DHT22;12544;46.760;15.942;2023-10-19T03:33:20;6.80;99.90
24412;DHT22;12544;46.760;15.942;2023-10-19T03:35:51;6.70;99.90
24412;DHT22;12544;46.760;15.942;2023-10-19T03:38:19;6.70;99.90
24412;DHT22;12544;46.760;15.942;2023-10-19T03:40:48;6.70;99.90
24412;DHT22;12544;46.760;15.942;2023-10-19T03:43:18;6.70;99.90
24412;DHT22;12544;46.760;15.942;2023-10-19T03:45:47;6.90;99.90
24412;DHT22;12544;46.760;15.942;2023-10-19T03:48:20;6.90;99.90
24412;DHT22;12544;46.760;15.942;2023-10-19T03:50:52;7.00;99.90
24412;DHT22;12544;46.760;15.942;2023-10-19T03:53:19;7.00;99.90
24412;DHT22;12544;46.760;15.942;2023-10-19T03:55:47;6.90;99.90
24412;DHT22;12544;46.760;15.942;2023-10-19T03:58:13;6.80;99.90
24412;DHT22;12544;46.760;15.942;2023-10-19T04:00:38;6.90;99.90
24412;DHT22;12544;46.760;15.942;2023-10-19T04:03:04;6.80;99.90
24412;DHT22;12544;46.760;15.942;2023-10-19T04:05:30;6.80;99.90
24412;DHT22;12544;46.760;15.942;2023-10-19T04:07:57;6.80;99.90
24412;DHT22;12544;46.760;15.942;2023-10-19T04:10:24;6.80;99.90
24412;DHT22;12544;46.760;15.942;2023-10-19T04:13:04;6.70;99.90
24412;DHT22;12544;46.760;15.942;2023-10-19T04:15:30;6.70;99.90
24412;DHT22;12544;46.760;15.942;2023-10-19T04:17:59;6.70;99.90
24412;DHT22;12544;46.760;15.942;2023-10-19T04:20:26;6.70;99.90
24412;DHT22;12544;46.760;15.942;2023-10-19T04:22:54;6.60;99.90
24412;DHT22;12544;46.760;15.942;2023-10-19T04:25:20;6.50;99.90
24412;DHT22;12544;46.760;15.942;2023-10-19T04:27:50;6.40;99.90
24412;DHT22;12544;46.760;15.942;2023-10-19T04:30:16;6.30;99.90
24412;DHT22;12544;46.760;15.942;2023-10-19T04:32:48;6.20;99.90
24412;DHT22;12544;46.760;15.942;2023-10-19T04:35:21;6.10;99.90
24412;DHT22;12544;46.760;15.942;2023-10-19T04:37:50;6.10;99.90
24412;DHT22;12544;46.760;15.942;2023-10-19T04:40:17;6.00;99.90
24412;DHT22;12544;46.760;15.942;2023-10-19T04:42:43;6.00;99.90
24412;DHT22;12544;46.760;15.942;2023-10-19T04:45:09;5.90;99.90
24412;DHT22;12544;46.760;15.942;2023-10-19T04:47:37;5.90;99.90
24412;DHT22;12544;46.760;15.942;2023-10-19T04:50:04;5.80;99.90
24412;DHT22;12544;46.760;15.942;2023-10-19T04:52:31;5.80;99.90
24412;DHT22;12544;46.760;15.942;2023-10-19T04:54:57;5.70;99.90
24412;DHT22;12544;46.760;15.942;2023-10-19T04:57:23;5.70;99.90
24412;DHT22;12544;46.760;15.942;2023-10-19T04:59:48;5.90;99.90
24412;DHT22;12544;46.760;15.942;2023-10-19T05:02:14;6.10;99.90
24412;DHT22;12544;46.760;15.942;2023-10-19T05:04:40;6.30;99.90
24412;DHT22;12544;46.760;15.942;2023-10-19T05:07:09;6.40;99.90
24412;DHT22;12544;46.760;15.942;2023-10-19T05:09:38;6.50;99.90
24412;DHT22;12544;46.760;15.942;2023-10-19T05:12:06;6.50;99.90
24412;DHT22;12544;46.760;15.942;2023-10-19T05:14:35;6.50;99.90
24412;DHT22;12544;46.760;15.942;2023-10-19T05:17:04;6.50;99.90
24412;DHT22;12544;46.760;15.942;2023-10-19T05:19:35;6.60;99.90
24412;DHT22;12544;46.760;15.942;2023-10-19T05:22:01;6.60;99.90
24412;DHT22;12544;46.760;15.942;2023-10-19T05:24:28;6.60;99.90
24412;DHT22;12544;46.760;15.942;2023-10-19T05:26:55;6.70;99.90
24412;DHT22;12544;46.760;15.942;2023-10-19T05:29:21;6.70;99.90
24412;DHT22;12544;46.760;15.942;2023-10-19T05:31:47;6.70;99.90
24412;DHT22;12544;46.760;15.942;2023-10-19T05:34:13;6.70;99.90
24412;DHT22;12544;46.760;15.942;2023-10-19T05:36:38;6.60;99.90
24412;DHT22;12544;46.760;15.942;2023-10-19T05:39:05;6.60;99.90
24412;DHT22;12544;46.760;15.942;2023-10-19T05:41:33;6.60;99.90
24412;DHT22;12544;46.760;15.942;2023-10-19T05:44:03;6.40;99.90
24412;DHT22;12544;46.760;15.942;2023-10-19T05:46:29;6.40;99.90
24412;DHT22;12544;46.760;15.942;2023-10-19T05:48:54;6.30;99.90
24412;DHT22;12544;46.760;15.942;2023-10-19T05:51:21;6.30;99.90
24412;DHT22;12544;46.760;15.942;2023-10-19T05:53:47;6.20;99.90
24412;DHT22;12544;46.760;15.942;2023-10-19T05:56:14;6.10;99.90
24412;DHT22;12544;46.760;15.942;2023-10-19T05:58:45;6.10;99.90
24412;DHT22;12544;46.760;15.942;2023-10-19T06:01:14;6.00;99.90
24412;DHT22;12544;46.760;15.942;2023-10-19T06:03:39;6.00;99.90
24412;DHT22;12544;46.760;15.942;2023-10-19T06:06:05;6.00;99.90
24412;DHT22;12544;46.760;15.942;2023-10-19T06:08:31;6.00;99.90
24412;DHT22;12544;46.760;15.942;2023-10-19T06:10:57;6.00;99.90
24412;DHT22;12544;46.760;15.942;2023-10-19T06:13:23;6.00;99.90
24412;DHT22;12544;46.760;15.942;2023-10-19T06:15:48;6.00;99.90
24412;DHT22;12544;46.760;15.942;2023-10-19T06:18:14;6.10;99.90
24412;DHT22;12544;46.760;15.942;2023-10-19T06:20:44;6.10;99.90
24412;DHT22;12544;46.760;15.942;2023-10-19T06:23:10;6.10;99.90
24412;DHT22;12544;46.760;15.942;2023-10-19T06:25:37;6.20;99.90
24412;DHT22;12544;46.760;15.942;2023-10-19T06:28:04;6.20;99.90
24412;DHT22;12544;46.760;15.942;2023-10-19T06:30:30;6.20;99.90
24412;DHT22;12544;46.760;15.942;2023-10-19T06:32:58;6.30;99.90
24412;DHT22;12544;46.760;15.942;2023-10-19T06:35:27;6.40;99.90
24412;DHT22;12544;46.760;15.942;2023-10-19T06:37:54;6.50;99.90
24412;DHT22;12544;46.760;15.942;2023-10-19T06:40:22;6.50;99.90
24412;DHT22;12544;46.760;15.942;2023-10-19T06:42:48;6.60;99.90
24412;DHT22;12544;46.760;15.942;2023-10-19T06:45:17;6.60;99.90
24412;DHT22;12544;46.760;15.942;2023-10-19T06:47:45;6.70;99.90
24412;DHT22;12544;46.760;15.942;2023-10-19T06:50:13;6.90;99.90
24412;DHT22;12544;46.760;15.942;2023-10-19T06:52:41;7.00;99.90
24412;DHT22;12544;46.760;15.942;2023-10-19T06:55:09;7.10;99.90
24412;DHT22;12544;46.760;15.942;2023-10-19T06:57:42;7.20;99.90
24412;DHT22;12544;46.760;15.942;2023-10-19T07:00:12;7.30;99.90
24412;DHT22;12544;46.760;15.942;2023-10-19T07:02:44;7.40;99.90
24412;DHT22;12544;46.760;15.942;2023-10-19T07:05:13;7.50;99.90
24412;DHT22;12544;46.760;15.942;2023-10-19T07:07:42;7.60;99.90
24412;DHT22;12544;46.760;15.942;2023-10-19T07:10:09;7.80;99.90
24412;DHT22;12544;46.760;15.942;2023-10-19T07:12:39;8.00;99.90
24412;DHT22;12544;46.760;15.942;2023-10-19T07:15:06;8.00;99.90
24412;DHT22;12544;46.760;15.942;2023-10-19T07:17:42;8.10;99.90
24412;DHT22;12544;46.760;15.942;2023-10-19T07:20:10;8.20;99.90
24412;DHT22;12544;46.760;15.942;2023-10-19T07:22:55;8.20;99.90
24412;DHT22;12544;46.760;15.942;2023-10-19T07:25:24;8.20;99.90
24412;DHT22;12544;46.760;15.942;2023-10-19T07:27:52;8.30;99.90
24412;DHT22;12544;46.760;15.942;2023-10-19T07:30:18;8.40;99.90
24412;DHT22;12544;46.760;15.942;2023-10-19T07:32:52;8.50;99.90
24412;DHT22;12544;46.760;15.942;2023-10-19T07:35:24;8.80;99.90
24412;DHT22;12544;46.760;15.942;2023-10-19T07:37:52;8.90;99.90
24412;DHT22;12544;46.760;15.942;2023-10-19T07:40:18;9.20;99.90
24412;DHT22;12544;46.760;15.942;2023-10-19T07:42:45;9.50;99.90
24412;DHT22;12544;46.760;15.942;2023-10-19T07:45:12;9.70;99.90
24412;DHT22;12544;46.760;15.942;2023-10-19T07:47:38;9.90;99.90
24412;DHT22;12544;46.760;15.942;2023-10-19T07:50:11;10.20;99.90
24412;DHT22;12544;46.760;15.942;2023-10-19T07:52:43;10.40;99.90
24412;DHT22;12544;46.760;15.942;2023-10-19T07:55:09;10.70;99.90
24412;DHT22;12544;46.760;15.942;2023-10-19T07:57:35;10.80;99.90
24412;DHT22;12544;46.760;15.942;2023-10-19T08:00:02;11.00;99.90
24412;DHT22;12544;46.760;15.942;2023-10-19T08:02:29;11.30;99.90
24412;DHT22;12544;46.760;15.942;2023-10-19T08:04:55;11.40;99.90
24412;DHT22;12544;46.760;15.942;2023-10-19T08:07:22;11.60;99.90
24412;DHT22;12544;46.760;15.942;2023-10-19T08:09:47;11.80;99.90
24412;DHT22;12544;46.760;15.942;2023-10-19T08:12:13;11.90;99.90
24412;DHT22;12544;46.760;15.942;2023-10-19T08:14:39;12.00;99.90
24412;DHT22;12544;46.760;15.942;2023-10-19T08:17:05;12.10;99.90
24412;DHT22;12544;46.760;15.942;2023-10-19T08:19:34;12.20;99.90
24412;DHT22;12544;46.760;15.942;2023-10-19T08:22:00;12.30;99.90
24412;DHT22;12544;46.760;15.942;2023-10-19T08:24:25;12.50;99.90
24412;DHT22;12544;46.760;15.942;2023-10-19T08:26:54;12.70;99.90
24412;DHT22;12544;46.760;15.942;2023-10-19T08:29:20;12.90;99.90
24412;DHT22;12544;46.760;15.942;2023-10-19T08:31:46;13.10;99.90
24412;DHT22;12544;46.760;15.942;2023-10-19T08:34:12;13.30;99.90
24412;DHT22;12544;46.760;15.942;2023-10-19T08:36:39;13.50;99.90
24412;DHT22;12544;46.760;15.942;2023-10-19T08:39:08;13.70;99.90
24412;DHT22;12544;46.760;15.942;2023-10-19T08:41:35;14.00;99.90
24412;DHT22;12544;46.760;15.942;2023-10-19T08:44:08;14.30;99.90
24412;DHT22;12544;46.760;15.942;2023-10-19T08:46:41;14.80;99.90
24412;DHT22;12544;46.760;15.942;2023-10-19T08:49:11;15.20;99.90
24412;DHT22;12544;46.760;15.942;2023-10-19T08:51:38;15.50;99.90
24412;DHT22;12544;46.760;15.942;2023-10-19T08:54:05;15.80;99.90
24412;DHT22;12544;46.760;15.942;2023-10-19T08:56:32;16.00;99.90
24412;DHT22;12544;46.760;15.942;2023-10-19T08:59:01;16.20;99.90
24412;DHT22;12544;46.760;15.942;2023-10-19T09:01:28;16.50;99.90
24412;DHT22;12544;46.760;15.942;2023-10-19T09:03:59;16.70;99.90
24412;DHT22;12544;46.760;15.942;2023-10-19T09:06:26;17.00;99.90
24412;DHT22;12544;46.760;15.942;2023-10-19T09:08:54;17.30;99.90
24412;DHT22;12544;46.760;15.942;2023-10-19T09:11:20;17.50;99.90
24412;DHT22;12544;46.760;15.942;2023-10-19T09:13:50;17.70;99.90
24412;DHT22;12544;46.760;15.942;2023-10-19T09:16:21;18.00;99.90
24412;DHT22;12544;46.760;15.942;2023-10-19T09:18:48;18.10;99.90
24412;DHT22;12544;46.760;15.942;2023-10-19T09:21:19;18.20;99.90
24412;DHT22;12544;46.760;15.942;2023-10-19T09:23:52;18.30;99.90
24412;DHT22;12544;46.760;15.942;2023-10-19T09:26:18;18.40;99.90
24412;DHT22;12544;46.760;15.942;2023-10-19T09:28:49;18.40;99.90
24412;DHT22;12544;46.760;15.942;2023-10-19T09:31:16;18.50;99.90
24412;DHT22;12544;46.760;15.942;2023-10-19T09:33:45;18.50;99.90
24412;DHT22;12544;46.760;15.942;2023-10-19T09:36:12;18.50;99.90
24412;DHT22;12544;46.760;15.942;2023-10-19T09:38:42;18.60;99.90
24412;DHT22;12544;46.760;15.942;2023-10-19T09:41:12;18.70;99.90
24412;DHT22;12544;46.760;15.942;2023-10-19T09:43:43;18.80;99.90
24412;DHT22;12544;46.760;15.942;2023-10-19T09:46:11;18.80;99.90
24412;DHT22;12544;46.760;15.942;2023-10-19T09:48:42;19.00;99.90
24412;DHT22;12544;46.760;15.942;2023-10-19T09:51:08;19.00;99.90
24412;DHT22;12544;46.760;15.942;2023-10-19T09:53:36;19.10;99.90
24412;DHT22;12544;46.760;15.942;2023-10-19T09:56:04;19.10;99.90
24412;DHT22;12544;46.760;15.942;2023-10-19T09:58:36;19.20;99.90
24412;DHT22;12544;46.760;15.942;2023-10-19T10:01:03;19.20;99.90
24412;DHT22;12544;46.760;15.942;2023-10-19T10:03:51;19.20;99.90
24412;DHT22;12544;46.760;15.942;2023-10-19T10:07:11;19.30;99.90
24412;DHT22;12544;46.760;15.942;2023-10-19T10:09:12;19.60;99.90
24412;DHT22;12544;46.760;15.942;2023-10-19T10:11:38;20.00;99.90
24412;DHT22;12544;46.760;15.942;2023-10-19T10:14:23;20.30;99.90
24412;DHT22;12544;46.760;15.942;2023-10-19T10:17:04;20.50;99.90
24412;DHT22;12544;46.760;15.942;2023-10-19T10:19:35;20.60;99.90
24412;DHT22;12544;46.760;15.942;2023-10-19T10:22:10;20.70;99.90
24412;DHT22;12544;46.760;15.942;2023-10-19T10:24:41;20.80;99.90
24412;DHT22;12544;46.760;15.942;2023-10-19T10:27:07;20.80;99.90
24412;DHT22;12544;46.760;15.942;2023-10-19T10:29:33;20.60;99.90
24412;DHT22;12544;46.760;15.942;2023-10-19T10:31:59;20.50;99.90
24412;DHT22;12544;46.760;15.942;2023-10-19T10:37:04;20.30;99.90
24412;DHT22;12544;46.760;15.942;2023-10-19T10:39:34;20.30;99.90
24412;DHT22;12544;46.760;15.942;2023-10-19T10:42:05;20.20;99.90
24412;DHT22;12544;46.760;15.942;2023-10-19T10:49:50;19.70;99.90
24412;DHT22;12544;46.760;15.942;2023-10-19T10:52:32;19.50;99.90
24412;DHT22;12544;46.760;15.942;2023-10-19T10:54:58;19.30;99.90
24412;DHT22;12544;46.760;15.942;2023-10-19T10:57:31;19.20;99.90
24412;DHT22;12544;46.760;15.942;2023-10-19T11:00:15;19.10;99.90
24412;DHT22;12544;46.760;15.942;2023-10-19T11:02:42;18.90;99.90
24412;DHT22;12544;46.760;15.942;2023-10-19T11:05:09;18.80;99.90
24412;DHT22;12544;46.760;15.942;2023-10-19T11:07:40;18.80;99.90
24412;DHT22;12544;46.760;15.942;2023-10-19T11:10:06;18.70;99.90
24412;DHT22;12544;46.760;15.942;2023-10-19T11:12:32;18.60;99.90
24412;DHT22;12544;46.760;15.942;2023-10-19T11:14:59;18.60;99.90
24412;DHT22;12544;46.760;15.942;2023-10-19T11:17:26;18.60;99.90
24412;DHT22;12544;46.760;15.942;2023-10-19T11:19:57;18.50;99.90
24412;DHT22;12544;46.760;15.942;2023-10-19T11:22:26;18.40;99.90
24412;DHT22;12544;46.760;15.942;2023-10-19T11:24:53;18.40;99.90
24412;DHT22;12544;46.760;15.942;2023-10-19T11:27:26;18.30;99.90
24412;DHT22;12544;46.760;15.942;2023-10-19T11:29:57;18.20;99.90
24412;DHT22;12544;46.760;15.942;2023-10-19T11:32:23;18.20;99.90
24412;DHT22;12544;46.760;15.942;2023-10-19T11:34:52;18.20;99.90
24412;DHT22;12544;46.760;15.942;2023-10-19T11:37:18;18.20;99.90
24412;DHT22;12544;46.760;15.942;2023-10-19T11:39:43;18.20;99.90
24412;DHT22;12544;46.760;15.942;2023-10-19T11:42:09;18.30;99.90
24412;DHT22;12544;46.760;15.942;2023-10-19T11:44:35;18.30;99.90
24412;DHT22;12544;46.760;15.942;2023-10-19T11:47:02;18.40;99.90
24412;DHT22;12544;46.760;15.942;2023-10-19T11:49:28;18.50;99.90
24412;DHT22;12544;46.760;15.942;2023-10-19T11:51:54;18.60;99.90
24412;DHT22;12544;46.760;15.942;2023-10-19T11:54:20;18.90;99.90
24412;DHT22;12544;46.760;15.942;2023-10-19T11:56:46;19.00;99.90
24412;DHT22;12544;46.760;15.942;2023-10-19T11:59:12;19.30;99.90
24412;DHT22;12544;46.760;15.942;2023-10-19T12:01:38;19.40;99.90
24412;DHT22;12544;46.760;15.942;2023-10-19T12:04:04;19.40;99.90
24412;DHT22;12544;46.760;15.942;2023-10-19T12:06:31;19.50;99.90
24412;DHT22;12544;46.760;15.942;2023-10-19T12:08:57;19.60;99.90
24412;DHT22;12544;46.760;15.942;2023-10-19T12:11:25;19.80;99.90
24412;DHT22;12544;46.760;15.942;2023-10-19T12:13:50;20.10;99.90
24412;DHT22;12544;46.760;15.942;2023-10-19T12:16:17;20.50;99.90
24412;DHT22;12544;46.760;15.942;2023-10-19T12:18:46;20.50;99.90
24412;DHT22;12544;46.760;15.942;2023-10-19T12:21:14;20.60;99.90
24412;DHT22;12544;46.760;15.942;2023-10-19T12:23:44;20.60;99.90
24412;DHT22;12544;46.760;15.942;2023-10-19T12:26:10;20.70;99.90
24412;DHT22;12544;46.760;15.942;2023-10-19T12:28:40;20.80;99.90
24412;DHT22;12544;46.760;15.942;2023-10-19T12:31:07;20.70;99.90
24412;DHT22;12544;46.760;15.942;2023-10-19T12:33:37;20.50;99.90
24412;DHT22;12544;46.760;15.942;2023-10-19T12:36:04;20.30;99.90
24412;DHT22;12544;46.760;15.942;2023-10-19T12:38:50;20.20;99.90
24412;DHT22;12544;46.760;15.942;2023-10-19T12:41:18;20.00;99.90
24412;DHT22;12544;46.760;15.942;2023-10-19T12:43:44;19.90;99.90
24412;DHT22;12544;46.760;15.942;2023-10-19T12:46:11;19.90;99.90
24412;DHT22;12544;46.760;15.942;2023-10-19T12:48:42;19.80;99.90
24412;DHT22;12544;46.760;15.942;2023-10-19T12:51:08;19.80;99.90
24412;DHT22;12544;46.760;15.942;2023-10-19T12:53:37;19.80;99.90
24412;DHT22;12544;46.760;15.942;2023-10-19T12:56:04;19.80;99.90
24412;DHT22;12544;46.760;15.942;2023-10-19T12:58:31;19.80;99.90
24412;DHT22;12544;46.760;15.942;2023-10-19T13:00:57;19.90;99.90
24412;DHT22;12544;46.760;15.942;2023-10-19T13:03:24;19.90;99.90
24412;DHT22;12544;46.760;15.942;2023-10-19T13:05:53;19.90;99.90
24412;DHT22;12544;46.760;15.942;2023-10-19T13:08:19;19.90;99.90
24412;DHT22;12544;46.760;15.942;2023-10-19T13:10:47;19.80;99.90
24412;DHT22;12544;46.760;15.942;2023-10-19T13:13:14;19.70;99.90
24412;DHT22;12544;46.760;15.942;2023-10-19T13:15:42;19.60;99.90
24412;DHT22;12544;46.760;15.942;2023-10-19T13:18:10;19.50;99.90
24412;DHT22;12544;46.760;15.942;2023-10-19T13:20:39;19.40;99.90
24412;DHT22;12544;46.760;15.942;2023-10-19T13:23:08;19.30;99.90
24412;DHT22;12544;46.760;15.942;2023-10-19T13:25:37;19.10;99.90
24412;DHT22;12544;46.760;15.942;2023-10-19T13:28:16;19.10;99.90
24412;DHT22;12544;46.760;15.942;2023-10-19T13:30:52;19.10;99.90
24412;DHT22;12544;46.760;15.942;2023-10-19T13:33:22;19.10;99.90
24412;DHT22;12544;46.760;15.942;2023-10-19T13:35:48;19.00;99.90
24412;DHT22;12544;46.760;15.942;2023-10-19T13:38:19;19.00;99.90
24412;DHT22;12544;46.760;15.942;2023-10-19T13:40:48;19.00;99.90
24412;DHT22;12544;46.760;15.942;2023-10-19T13:43:16;19.00;99.90
24412;DHT22;12544;46.760;15.942;2023-10-19T13:45:44;19.00;99.90
24412;DHT22;12544;46.760;15.942;2023-10-19T13:48:11;18.90;99.90
24412;DHT22;12544;46.760;15.942;2023-10-19T13:50:45;18.90;99.90
24412;DHT22;12544;46.760;15.942;2023-10-19T13:53:14;18.90;99.90
24412;DHT22;12544;46.760;15.942;2023-10-19T13:55:41;18.90;99.90
24412;DHT22;12544;46.760;15.942;2023-10-19T13:58:06;18.90;99.90
24412;DHT22;12544;46.760;15.942;2023-10-19T14:00:33;18.90;99.90
24412;DHT22;12544;46.760;15.942;2023-10-19T14:03:05;18.90;99.90
24412;DHT22;12544;46.760;15.942;2023-10-19T14:05:36;18.90;99.90
24412;DHT22;12544;46.760;15.942;2023-10-19T14:08:04;18.80;99.90
24412;DHT22;12544;46.760;15.942;2023-10-19T14:10:30;18.80;99.90
24412;DHT22;12544;46.760;15.942;2023-10-19T14:12:56;18.90;99.90
24412;DHT22;12544;46.760;15.942;2023-10-19T14:15:22;18.90;99.90
24412;DHT22;12544;46.760;15.942;2023-10-19T14:17:49;19.00;99.90
24412;DHT22;12544;46.760;15.942;2023-10-19T14:20:16;19.00;99.90
24412;DHT22;12544;46.760;15.942;2023-10-19T14:22:43;18.90;99.90
24412;DHT22;12544;46.760;15.942;2023-10-19T14:25:10;19.00;99.90
24412;DHT22;12544;46.760;15.942;2023-10-19T14:27:40;18.90;99.90
24412;DHT22;12544;46.760;15.942;2023-10-19T14:30:10;18.90;99.90
24412;DHT22;12544;46.760;15.942;2023-10-19T14:32:43;18.80;99.90
24412;DHT22;12544;46.760;15.942;2023-10-19T14:35:11;18.80;99.90
24412;DHT22;12544;46.760;15.942;2023-10-19T14:37:41;18.80;99.90
24412;DHT22;12544;46.760;15.942;2023-10-19T14:42:38;18.70;99.90
24412;DHT22;12544;46.760;15.942;2023-10-19T14:45:10;18.50;99.90
24412;DHT22;12544;46.760;15.942;2023-10-19T14:47:39;18.60;99.90
24412;DHT22;12544;46.760;15.942;2023-10-19T14:50:11;18.50;99.90
24412;DHT22;12544;46.760;15.942;2023-10-19T14:52:40;18.40;99.90
24412;DHT22;12544;46.760;15.942;2023-10-19T14:55:06;18.40;99.90
24412;DHT22;12544;46.760;15.942;2023-10-19T14:57:35;18.40;99.90
24412;DHT22;12544;46.760;15.942;2023-10-19T15:00:06;18.40;99.90
24412;DHT22;12544;46.760;15.942;2023-10-19T15:02:57;18.40;99.90
24412;DHT22;12544;46.760;15.942;2023-10-19T15:05:27;18.40;99.90
24412;DHT22;12544;46.760;15.942;2023-10-19T15:07:54;18.40;99.90
24412;DHT22;12544;46.760;15.942;2023-10-19T15:10:29;18.30;99.90
24412;DHT22;12544;46.760;15.942;2023-10-19T15:12:56;18.30;99.90
24412;DHT22;12544;46.760;15.942;2023-10-19T15:15:28;18.30;99.90
24412;DHT22;12544;46.760;15.942;2023-10-19T15:17:55;18.20;99.90
24412;DHT22;12544;46.760;15.942;2023-10-19T15:20:24;18.30;99.90
24412;DHT22;12544;46.760;15.942;2023-10-19T15:22:50;18.30;99.90
24412;DHT22;12544;46.760;15.942;2023-10-19T15:25:16;18.40;99.90
24412;DHT22;12544;46.760;15.942;2023-10-19T15:27:45;18.40;99.90
24412;DHT22;12544;46.760;15.942;2023-10-19T15:30:12;18.40;99.90
24412;DHT22;12544;46.760;15.942;2023-10-19T15:32:39;18.30;99.90
24412;DHT22;12544;46.760;15.942;2023-10-19T15:35:10;18.30;99.90
24412;DHT22;12544;46.760;15.942;2023-10-19T15:37:37;18.20;99.90
24412;DHT22;12544;46.760;15.942;2023-10-19T15:40:03;18.20;99.90
24412;DHT22;12544;46.760;15.942;2023-10-19T15:42:29;18.20;99.90
24412;DHT22;12544;46.760;15.942;2023-10-19T15:44:55;18.20;99.90
24412;DHT22;12544;46.760;15.942;2023-10-19T15:47:21;18.20;99.90
24412;DHT22;12544;46.760;15.942;2023-10-19T15:49:53;18.20;99.90
24412;DHT22;12544;46.760;15.942;2023-10-19T15:52:25;18.20;99.90